sensor_id;sensor_type;location;lat;lon;timestamp;pressure;altitude;pressure_sealevel;temperature;humidity
29385;BME280;16367;48.736;9.218;2023-01-28T00:01:06;-23157.84;;;-0.33;100.00
29385;BME280;16367;48.736;9.218;2023-01-28T00:03:09;-23160.22;;;-0.25;100.00
29385;BME280;16367;48.736;9.218;2023-01-28T00:05:12;-23156.41;;;-0.37;100.00
29385;BME280;16367;48.736;9.218;2023-01-28T00:07:17;-23155.91;;;-0.39;100.00
29385;BME280;16367;48.736;9.218;2023-01-28T00:09:20;-23155.13;;;-0.41;100.00
29385;BME280;16367;48.736;9.218;2023-01-28T00:11:23;-23155.44;;;-0.40;100.00
29385;BME280;16367;48.736;9.218;2023-01-28T00:13:26;-23153.84;;;-0.45;100.00
29385;BME280;16367;48.736;9.218;2023-01-28T00:15:29;-23155.59;;;-0.40;100.00
29385;BME280;16367;48.736;9.218;2023-01-28T00:17:31;-23157.03;;;-0.35;100.00
29385;BME280;16367;48.736;9.218;2023-01-28T00:19:34;-23159.59;;;-0.27;100.00
29385;BME280;16367;48.736;9.218;2023-01-28T00:21:36;-23157.34;;;-0.34;100.00
29385;BME280;16367;48.736;9.218;2023-01-28T00:23:42;-23159.44;;;-0.28;100.00
29385;BME280;16367;48.736;9.218;2023-01-28T00:25:45;-23159.91;;;-0.26;100.00
29385;BME280;16367;48.736;9.218;2023-01-28T00:27:48;-23158.00;;;-0.32;100.00
29385;BME280;16367;48.736;9.218;2023-01-28T00:29:51;-23158.31;;;-0.31;100.00
29385;BME280;16367;48.736;9.218;2023-01-28T00:31:55;-23154.31;;;-0.44;100.00
29385;BME280;16367;48.736;9.218;2023-01-28T00:33:59;-23158.63;;;-0.30;100.00
29385;BME280;16367;48.736;9.218;2023-01-28T00:36:03;-23158.63;;;-0.30;100.00
29385;BME280;16367;48.736;9.218;2023-01-28T00:38:07;-23159.91;;;-0.26;100.00
29385;BME280;16367;48.736;9.218;2023-01-28T00:40:12;-23158.31;;;-0.31;100.00
29385;BME280;16367;48.736;9.218;2023-01-28T00:42:14;-23157.50;;;-0.34;100.00
29385;BME280;16367;48.736;9.218;2023-01-28T00:44:18;-23154.16;;;-0.44;100.00
29385;BME280;16367;48.736;9.218;2023-01-28T00:46:21;-23160.22;;;-0.25;100.00
29385;BME280;16367;48.736;9.218;2023-01-28T00:48:25;-23155.91;;;-0.39;100.00
29385;BME280;16367;48.736;9.218;2023-01-28T00:50:28;-23159.59;;;-0.27;100.00
29385;BME280;16367;48.736;9.218;2023-01-28T00:52:31;-23158.97;;;-0.29;100.00
29385;BME280;16367;48.736;9.218;2023-01-28T00:54:33;-23156.41;;;-0.37;100.00
29385;BME280;16367;48.736;9.218;2023-01-28T00:56:38;-23162.31;;;-0.19;100.00
29385;BME280;16367;48.736;9.218;2023-01-28T00:58:41;-23155.59;;;-0.40;100.00
29385;BME280;16367;48.736;9.218;2023-01-28T01:00:44;-23161.19;;;-0.22;100.00
29385;BME280;16367;48.736;9.218;2023-01-28T01:02:47;-23159.91;;;-0.26;100.00
29385;BME280;16367;48.736;9.218;2023-01-28T01:04:50;-23161.50;;;-0.21;100.00
29385;BME280;16367;48.736;9.218;2023-01-28T01:07:02;-23156.72;;;-0.36;100.00
29385;BME280;16367;48.736;9.218;2023-01-28T01:09:06;-23157.34;;;-0.34;100.00
29385;BME280;16367;48.736;9.218;2023-01-28T01:11:10;-23153.19;;;-0.47;100.00
29385;BME280;16367;48.736;9.218;2023-01-28T01:13:14;-23153.53;;;-0.46;100.00
29385;BME280;16367;48.736;9.218;2023-01-28T01:15:18;-23157.34;;;-0.34;100.00
29385;BME280;16367;48.736;9.218;2023-01-28T01:17:21;-23157.69;;;-0.33;100.00
29385;BME280;16367;48.736;9.218;2023-01-28T01:19:23;-23157.69;;;-0.33;100.00
29385;BME280;16367;48.736;9.218;2023-01-28T01:21:28;-23157.69;;;-0.33;100.00
29385;BME280;16367;48.736;9.218;2023-01-28T01:23:31;-23156.88;;;-0.36;100.00
29385;BME280;16367;48.736;9.218;2023-01-28T01:25:33;-23160.22;;;-0.25;100.00
29385;BME280;16367;48.736;9.218;2023-01-28T01:27:36;-23162.78;;;-0.17;100.00
29385;BME280;16367;48.736;9.218;2023-01-28T01:29:40;-23159.91;;;-0.26;100.00
29385;BME280;16367;48.736;9.218;2023-01-28T01:31:43;-23158.16;;;-0.32;100.00
29385;BME280;16367;48.736;9.218;2023-01-28T01:33:47;-23158.47;;;-0.31;100.00
29385;BME280;16367;48.736;9.218;2023-01-28T01:35:52;-23155.28;;;-0.41;100.00
29385;BME280;16367;48.736;9.218;2023-01-28T01:37:55;-23159.44;;;-0.28;100.00
29385;BME280;16367;48.736;9.218;2023-01-28T01:39:57;-23158.00;;;-0.32;100.00
29385;BME280;16367;48.736;9.218;2023-01-28T01:42:07;-23161.66;;;-0.21;100.00
29385;BME280;16367;48.736;9.218;2023-01-28T01:44:51;-23161.19;;;-0.22;100.00
29385;BME280;16367;48.736;9.218;2023-01-28T01:46:54;-23160.72;;;-0.24;100.00
29385;BME280;16367;48.736;9.218;2023-01-28T01:49:04;-23158.31;;;-0.31;100.00
29385;BME280;16367;48.736;9.218;2023-01-28T01:51:12;-23157.03;;;-0.35;100.00
29385;BME280;16367;48.736;9.218;2023-01-28T01:53:18;-23158.63;;;-0.30;100.00
29385;BME280;16367;48.736;9.218;2023-01-28T01:55:24;-23160.22;;;-0.25;100.00
29385;BME280;16367;48.736;9.218;2023-01-28T01:57:31;-23159.91;;;-0.26;100.00
29385;BME280;16367;48.736;9.218;2023-01-28T01:59:36;-23162.78;;;-0.17;100.00
29385;BME280;16367;48.736;9.218;2023-01-28T02:01:43;-23162.78;;;-0.17;100.00
29385;BME280;16367;48.736;9.218;2023-01-28T02:03:52;-23162.47;;;-0.18;100.00
29385;BME280;16367;48.736;9.218;2023-01-28T02:05:56;-23159.28;;;-0.28;100.00
29385;BME280;16367;48.736;9.218;2023-01-28T02:07:59;-23159.91;;;-0.26;100.00
29385;BME280;16367;48.736;9.218;2023-01-28T02:10:17;-23160.72;;;-0.24;100.00
29385;BME280;16367;48.736;9.218;2023-01-28T02:12:22;-23160.22;;;-0.25;100.00
29385;BME280;16367;48.736;9.218;2023-01-28T02:14:28;-23157.34;;;-0.34;100.00
29385;BME280;16367;48.736;9.218;2023-01-28T02:16:33;-23157.84;;;-0.33;100.00
29385;BME280;16367;48.736;9.218;2023-01-28T02:18:38;-23159.44;;;-0.28;100.00
29385;BME280;16367;48.736;9.218;2023-01-28T02:20:57;-23162.78;;;-0.17;100.00
29385;BME280;16367;48.736;9.218;2023-01-28T02:23:22;-23160.56;;;-0.24;100.00
29385;BME280;16367;48.736;9.218;2023-01-28T02:25:40;-23159.13;;;-0.29;100.00
29385;BME280;16367;48.736;9.218;2023-01-28T02:28:01;-23160.22;;;-0.25;100.00
29385;BME280;16367;48.736;9.218;2023-01-28T02:30:10;-23165.19;;;-0.10;100.00
29385;BME280;16367;48.736;9.218;2023-01-28T02:32:19;-23161.50;;;-0.21;100.00
29385;BME280;16367;48.736;9.218;2023-01-28T02:34:30;-23158.31;;;-0.31;100.00
29385;BME280;16367;48.736;9.218;2023-01-28T02:36:42;-23160.88;;;-0.23;100.00
29385;BME280;16367;48.736;9.218;2023-01-28T02:38:48;-23163.28;;;-0.16;100.00
29385;BME280;16367;48.736;9.218;2023-01-28T02:40:57;-23155.59;;;-0.40;100.00
29385;BME280;16367;48.736;9.218;2023-01-28T02:43:08;-23162.78;;;-0.17;100.00
29385;BME280;16367;48.736;9.218;2023-01-28T02:45:17;-23161.19;;;-0.22;100.00
29385;BME280;16367;48.736;9.218;2023-01-28T02:47:21;-23161.19;;;-0.22;100.00
29385;BME280;16367;48.736;9.218;2023-01-28T02:49:44;-23159.28;;;-0.28;100.00
29385;BME280;16367;48.736;9.218;2023-01-28T02:52:18;-23158.78;;;-0.30;100.00
29385;BME280;16367;48.736;9.218;2023-01-28T02:54:54;-23163.09;;;-0.16;100.00
29385;BME280;16367;48.736;9.218;2023-01-28T02:57:11;-23161.66;;;-0.21;100.00
29385;BME280;16367;48.736;9.218;2023-01-28T02:59:23;-23160.56;;;-0.24;100.00
29385;BME280;16367;48.736;9.218;2023-01-28T03:01:41;-23158.00;;;-0.32;100.00
29385;BME280;16367;48.736;9.218;2023-01-28T03:03:57;-23156.88;;;-0.36;100.00
29385;BME280;16367;48.736;9.218;2023-01-28T03:06:02;-23159.91;;;-0.26;100.00
29385;BME280;16367;48.736;9.218;2023-01-28T03:08:09;-23160.88;;;-0.23;100.00
29385;BME280;16367;48.736;9.218;2023-01-28T03:10:27;-23158.63;;;-0.30;100.00
29385;BME280;16367;48.736;9.218;2023-01-28T03:12:31;-23161.66;;;-0.21;100.00
29385;BME280;16367;48.736;9.218;2023-01-28T03:14:55;-23157.03;;;-0.35;100.00
29385;BME280;16367;48.736;9.218;2023-01-28T03:17:20;-23157.84;;;-0.33;100.00
29385;BME280;16367;48.736;9.218;2023-01-28T03:19:42;-23158.63;;;-0.30;100.00
29385;BME280;16367;48.736;9.218;2023-01-28T03:22:03;-23161.66;;;-0.21;100.00
29385;BME280;16367;48.736;9.218;2023-01-28T03:24:27;-23160.06;;;-0.26;100.00
29385;BME280;16367;48.736;9.218;2023-01-28T03:26:53;-23162.47;;;-0.18;100.00
29385;BME280;16367;48.736;9.218;2023-01-28T03:29:16;-23160.22;;;-0.25;100.00
29385;BME280;16367;48.736;9.218;2023-01-28T03:31:41;-23162.63;;;-0.18;100.00
29385;BME280;16367;48.736;9.218;2023-01-28T03:34:02;-23163.09;;;-0.16;100.00
29385;BME280;16367;48.736;9.218;2023-01-28T03:36:24;-23161.84;;;-0.20;100.00
29385;BME280;16367;48.736;9.218;2023-01-28T03:38:45;-23164.72;;;-0.11;100.00
29385;BME280;16367;48.736;9.218;2023-01-28T03:40:50;-23159.59;;;-0.27;100.00
29385;BME280;16367;48.736;9.218;2023-01-28T03:42:53;-23159.75;;;-0.27;100.00
29385;BME280;16367;48.736;9.218;2023-01-28T03:44:57;-23161.84;;;-0.20;100.00
29385;BME280;16367;48.736;9.218;2023-01-28T03:47:03;-23162.47;;;-0.18;100.00
29385;BME280;16367;48.736;9.218;2023-01-28T03:49:09;-23162.16;;;-0.19;100.00
29385;BME280;16367;48.736;9.218;2023-01-28T03:51:12;-23162.78;;;-0.17;100.00
29385;BME280;16367;48.736;9.218;2023-01-28T03:53:15;-23164.22;;;-0.13;100.00
29385;BME280;16367;48.736;9.218;2023-01-28T03:55:17;-23162.94;;;-0.17;100.00
29385;BME280;16367;48.736;9.218;2023-01-28T03:57:22;-23161.50;;;-0.21;100.00
29385;BME280;16367;48.736;9.218;2023-01-28T03:59:24;-23158.63;;;-0.30;100.00
29385;BME280;16367;48.736;9.218;2023-01-28T04:01:27;-23162.78;;;-0.17;100.00
29385;BME280;16367;48.736;9.218;2023-01-28T04:03:31;-23158.31;;;-0.31;100.00
29385;BME280;16367;48.736;9.218;2023-01-28T04:05:34;-23158.97;;;-0.29;100.00
29385;BME280;16367;48.736;9.218;2023-01-28T04:07:37;-23159.91;;;-0.26;100.00
29385;BME280;16367;48.736;9.218;2023-01-28T04:09:40;-23162.63;;;-0.18;100.00
29385;BME280;16367;48.736;9.218;2023-01-28T04:11:43;-23159.59;;;-0.27;100.00
29385;BME280;16367;48.736;9.218;2023-01-28T04:13:47;-23158.00;;;-0.32;100.00
29385;BME280;16367;48.736;9.218;2023-01-28T04:15:50;-23159.44;;;-0.28;100.00
29385;BME280;16367;48.736;9.218;2023-01-28T04:17:53;-23156.41;;;-0.37;100.00
29385;BME280;16367;48.736;9.218;2023-01-28T04:19:57;-23160.72;;;-0.24;100.00
29385;BME280;16367;48.736;9.218;2023-01-28T04:21:59;-23161.50;;;-0.21;100.00
29385;BME280;16367;48.736;9.218;2023-01-28T04:24:02;-23157.69;;;-0.33;100.00
29385;BME280;16367;48.736;9.218;2023-01-28T04:26:05;-23159.91;;;-0.26;100.00
29385;BME280;16367;48.736;9.218;2023-01-28T04:28:08;-23161.84;;;-0.20;100.00
29385;BME280;16367;48.736;9.218;2023-01-28T04:30:11;-23156.88;;;-0.36;100.00
29385;BME280;16367;48.736;9.218;2023-01-28T04:32:14;-23158.47;;;-0.31;100.00
29385;BME280;16367;48.736;9.218;2023-01-28T04:34:16;-23160.72;;;-0.24;100.00
29385;BME280;16367;48.736;9.218;2023-01-28T04:36:22;-23160.72;;;-0.24;100.00
29385;BME280;16367;48.736;9.218;2023-01-28T04:38:25;-23162.78;;;-0.17;100.00
29385;BME280;16367;48.736;9.218;2023-01-28T04:40:27;-23158.16;;;-0.32;100.00
29385;BME280;16367;48.736;9.218;2023-01-28T04:42:30;-23161.84;;;-0.20;100.00
29385;BME280;16367;48.736;9.218;2023-01-28T04:44:33;-23161.03;;;-0.23;100.00
29385;BME280;16367;48.736;9.218;2023-01-28T04:46:36;-23157.03;;;-0.35;100.00
29385;BME280;16367;48.736;9.218;2023-01-28T04:48:39;-23162.31;;;-0.19;100.00
29385;BME280;16367;48.736;9.218;2023-01-28T04:50:42;-23162.78;;;-0.17;100.00
29385;BME280;16367;48.736;9.218;2023-01-28T04:52:46;-23160.72;;;-0.24;100.00
29385;BME280;16367;48.736;9.218;2023-01-28T04:54:49;-23157.03;;;-0.35;100.00
29385;BME280;16367;48.736;9.218;2023-01-28T04:56:51;-23158.31;;;-0.31;100.00
29385;BME280;16367;48.736;9.218;2023-01-28T04:58:55;-23156.56;;;-0.37;100.00
29385;BME280;16367;48.736;9.218;2023-01-28T05:00:58;-23155.13;;;-0.41;100.00
29385;BME280;16367;48.736;9.218;2023-01-28T05:03:01;-23160.22;;;-0.25;100.00
29385;BME280;16367;48.736;9.218;2023-01-28T05:05:05;-23157.03;;;-0.35;100.00
29385;BME280;16367;48.736;9.218;2023-01-28T05:07:09;-23158.78;;;-0.30;100.00
29385;BME280;16367;48.736;9.218;2023-01-28T05:09:13;-23159.13;;;-0.29;100.00
29385;BME280;16367;48.736;9.218;2023-01-28T05:11:16;-23158.31;;;-0.31;100.00
29385;BME280;16367;48.736;9.218;2023-01-28T05:13:18;-23160.22;;;-0.25;100.00
29385;BME280;16367;48.736;9.218;2023-01-28T05:15:21;-23155.75;;;-0.39;100.00
29385;BME280;16367;48.736;9.218;2023-01-28T05:17:24;-23155.44;;;-0.40;100.00
29385;BME280;16367;48.736;9.218;2023-01-28T05:19:27;-23156.72;;;-0.36;100.00
29385;BME280;16367;48.736;9.218;2023-01-28T05:21:29;-23157.69;;;-0.33;100.00
29385;BME280;16367;48.736;9.218;2023-01-28T05:23:32;-23159.59;;;-0.27;100.00
29385;BME280;16367;48.736;9.218;2023-01-28T05:25:36;-23159.59;;;-0.27;100.00
29385;BME280;16367;48.736;9.218;2023-01-28T05:27:39;-23160.56;;;-0.24;100.00
29385;BME280;16367;48.736;9.218;2023-01-28T05:29:42;-23158.63;;;-0.30;100.00
29385;BME280;16367;48.736;9.218;2023-01-28T05:31:46;-23158.78;;;-0.30;100.00
29385;BME280;16367;48.736;9.218;2023-01-28T05:33:49;-23159.91;;;-0.26;100.00
29385;BME280;16367;48.736;9.218;2023-01-28T05:35:53;-23158.00;;;-0.32;100.00
29385;BME280;16367;48.736;9.218;2023-01-28T05:37:55;-23158.97;;;-0.29;100.00
29385;BME280;16367;48.736;9.218;2023-01-28T05:39:58;-23160.22;;;-0.25;100.00
29385;BME280;16367;48.736;9.218;2023-01-28T05:42:02;-23159.44;;;-0.28;100.00
29385;BME280;16367;48.736;9.218;2023-01-28T05:44:05;-23162.00;;;-0.20;100.00
29385;BME280;16367;48.736;9.218;2023-01-28T05:46:08;-23161.50;;;-0.21;100.00
29385;BME280;16367;48.736;9.218;2023-01-28T05:48:10;-23166.31;;;-0.06;100.00
29385;BME280;16367;48.736;9.218;2023-01-28T05:50:13;-23164.88;;;-0.11;100.00
29385;BME280;16367;48.736;9.218;2023-01-28T05:52:17;-23166.31;;;-0.06;100.00
29385;BME280;16367;48.736;9.218;2023-01-28T05:54:19;-23160.41;;;-0.25;100.00
29385;BME280;16367;48.736;9.218;2023-01-28T05:56:22;-23159.59;;;-0.27;100.00
29385;BME280;16367;48.736;9.218;2023-01-28T05:58:26;-23159.28;;;-0.28;100.00
29385;BME280;16367;48.736;9.218;2023-01-28T06:00:32;-23160.22;;;-0.25;100.00
29385;BME280;16367;48.736;9.218;2023-01-28T06:02:35;-23158.78;;;-0.30;100.00
29385;BME280;16367;48.736;9.218;2023-01-28T06:04:37;-23160.22;;;-0.25;100.00
29385;BME280;16367;48.736;9.218;2023-01-28T06:06:40;-23160.22;;;-0.25;100.00
29385;BME280;16367;48.736;9.218;2023-01-28T06:08:43;-23157.19;;;-0.35;100.00
29385;BME280;16367;48.736;9.218;2023-01-28T06:10:46;-23157.69;;;-0.33;100.00
29385;BME280;16367;48.736;9.218;2023-01-28T06:12:48;-23159.44;;;-0.28;100.00
29385;BME280;16367;48.736;9.218;2023-01-28T06:14:52;-23158.78;;;-0.30;100.00
29385;BME280;16367;48.736;9.218;2023-01-28T06:16:55;-23159.28;;;-0.28;100.00
29385;BME280;16367;48.736;9.218;2023-01-28T06:18:58;-23160.06;;;-0.26;100.00
29385;BME280;16367;48.736;9.218;2023-01-28T06:21:01;-23163.28;;;-0.16;100.00
29385;BME280;16367;48.736;9.218;2023-01-28T06:23:04;-23163.75;;;-0.14;100.00
29385;BME280;16367;48.736;9.218;2023-01-28T06:25:07;-23164.56;;;-0.12;100.00
29385;BME280;16367;48.736;9.218;2023-01-28T06:27:10;-23162.78;;;-0.17;100.00
29385;BME280;16367;48.736;9.218;2023-01-28T06:29:12;-23159.59;;;-0.27;100.00
29385;BME280;16367;48.736;9.218;2023-01-28T06:31:16;-23161.19;;;-0.22;100.00
29385;BME280;16367;48.736;9.218;2023-01-28T06:33:20;-23163.59;;;-0.15;100.00
29385;BME280;16367;48.736;9.218;2023-01-28T06:35:24;-23162.94;;;-0.17;100.00
29385;BME280;16367;48.736;9.218;2023-01-28T06:37:27;-23163.28;;;-0.16;100.00
29385;BME280;16367;48.736;9.218;2023-01-28T06:39:29;-23162.47;;;-0.18;100.00
29385;BME280;16367;48.736;9.218;2023-01-28T06:41:33;-23163.44;;;-0.15;100.00
29385;BME280;16367;48.736;9.218;2023-01-28T06:43:36;-23161.66;;;-0.21;100.00
29385;BME280;16367;48.736;9.218;2023-01-28T06:45:38;-23161.34;;;-0.22;100.00
29385;BME280;16367;48.736;9.218;2023-01-28T06:47:43;-23160.88;;;-0.23;100.00
29385;BME280;16367;48.736;9.218;2023-01-28T06:49:45;-23160.41;;;-0.25;100.00
29385;BME280;16367;48.736;9.218;2023-01-28T06:51:48;-23161.50;;;-0.21;100.00
29385;BME280;16367;48.736;9.218;2023-01-28T06:53:51;-23162.16;;;-0.19;100.00
29385;BME280;16367;48.736;9.218;2023-01-28T06:55:54;-23160.88;;;-0.23;100.00
29385;BME280;16367;48.736;9.218;2023-01-28T06:57:56;-23164.56;;;-0.12;100.00
29385;BME280;16367;48.736;9.218;2023-01-28T06:59:59;-23159.44;;;-0.28;100.00
29385;BME280;16367;48.736;9.218;2023-01-28T07:02:02;-23164.38;;;-0.12;100.00
29385;BME280;16367;48.736;9.218;2023-01-28T07:04:06;-23164.38;;;-0.12;100.00
29385;BME280;16367;48.736;9.218;2023-01-28T07:06:09;-23164.38;;;-0.12;100.00
29385;BME280;16367;48.736;9.218;2023-01-28T07:08:11;-23161.84;;;-0.20;100.00
29385;BME280;16367;48.736;9.218;2023-01-28T07:10:14;-23165.19;;;-0.10;100.00
29385;BME280;16367;48.736;9.218;2023-01-28T07:12:18;-23165.03;;;-0.10;100.00
29385;BME280;16367;48.736;9.218;2023-01-28T07:14:21;-23165.66;;;-0.08;100.00
29385;BME280;16367;48.736;9.218;2023-01-28T07:16:23;-23165.03;;;-0.10;100.00
29385;BME280;16367;48.736;9.218;2023-01-28T07:18:26;-23166.31;;;-0.06;100.00
29385;BME280;16367;48.736;9.218;2023-01-28T07:20:30;-23165.34;;;-0.09;100.00
29385;BME280;16367;48.736;9.218;2023-01-28T07:22:33;-23161.50;;;-0.21;100.00
29385;BME280;16367;48.736;9.218;2023-01-28T07:24:36;-23162.16;;;-0.19;100.00
29385;BME280;16367;48.736;9.218;2023-01-28T07:26:38;-23163.44;;;-0.15;100.00
29385;BME280;16367;48.736;9.218;2023-01-28T07:28:41;-23168.53;;;0.01;100.00
29385;BME280;16367;48.736;9.218;2023-01-28T07:30:44;-23167.91;;;-0.01;100.00
29385;BME280;16367;48.736;9.218;2023-01-28T07:32:51;-23165.03;;;-0.10;100.00
29385;BME280;16367;48.736;9.218;2023-01-28T07:34:54;-23165.66;;;-0.08;100.00
29385;BME280;16367;48.736;9.218;2023-01-28T07:36:58;-23167.91;;;-0.01;100.00
29385;BME280;16367;48.736;9.218;2023-01-28T07:39:01;-23166.63;;;-0.05;100.00
29385;BME280;16367;48.736;9.218;2023-01-28T07:41:04;-23169.19;;;0.03;100.00
29385;BME280;16367;48.736;9.218;2023-01-28T07:43:07;-23168.38;;;0.00;100.00
29385;BME280;16367;48.736;9.218;2023-01-28T07:45:10;-23166.47;;;-0.06;100.00
29385;BME280;16367;48.736;9.218;2023-01-28T07:47:13;-23167.59;;;-0.02;100.00
29385;BME280;16367;48.736;9.218;2023-01-28T07:49:16;-23170.47;;;0.07;100.00
29385;BME280;16367;48.736;9.218;2023-01-28T07:51:18;-23171.59;;;0.11;100.00
29385;BME280;16367;48.736;9.218;2023-01-28T07:53:22;-23174.13;;;0.19;100.00
29385;BME280;16367;48.736;9.218;2023-01-28T07:55:25;-23170.16;;;0.06;100.00
29385;BME280;16367;48.736;9.218;2023-01-28T07:57:31;-23169.50;;;0.04;100.00
29385;BME280;16367;48.736;9.218;2023-01-28T07:59:34;-23169.50;;;0.04;100.00
29385;BME280;16367;48.736;9.218;2023-01-28T08:01:36;-23172.69;;;0.14;100.00
29385;BME280;16367;48.736;9.218;2023-01-28T08:03:39;-23173.81;;;0.18;100.00
29385;BME280;16367;48.736;9.218;2023-01-28T08:05:44;-23176.38;;;0.26;100.00
29385;BME280;16367;48.736;9.218;2023-01-28T08:07:47;-23172.22;;;0.13;100.00
29385;BME280;16367;48.736;9.218;2023-01-28T08:09:51;-23174.28;;;0.19;100.00
29385;BME280;16367;48.736;9.218;2023-01-28T08:11:54;-23174.28;;;0.19;100.00
29385;BME280;16367;48.736;9.218;2023-01-28T08:13:57;-23174.63;;;0.20;100.00
29385;BME280;16367;48.736;9.218;2023-01-28T08:16:00;-23177.16;;;0.28;100.00
29385;BME280;16367;48.736;9.218;2023-01-28T08:18:04;-23179.25;;;0.35;100.00
29385;BME280;16367;48.736;9.218;2023-01-28T08:20:08;-23174.63;;;0.20;100.00
29385;BME280;16367;48.736;9.218;2023-01-28T08:22:11;-23172.53;;;0.14;100.00
29385;BME280;16367;48.736;9.218;2023-01-28T08:24:14;-23173.81;;;0.18;100.00
29385;BME280;16367;48.736;9.218;2023-01-28T08:26:18;-23177.16;;;0.28;100.00
29385;BME280;16367;48.736;9.218;2023-01-28T08:28:21;-23178.13;;;0.31;100.00
29385;BME280;16367;48.736;9.218;2023-01-28T08:30:24;-23180.69;;;0.39;100.00
29385;BME280;16367;48.736;9.218;2023-01-28T08:32:27;-23174.78;;;0.21;100.00
29385;BME280;16367;48.736;9.218;2023-01-28T08:34:30;-23180.69;;;0.39;100.00
29385;BME280;16367;48.736;9.218;2023-01-28T08:36:33;-23182.13;;;0.44;100.00
29385;BME280;16367;48.736;9.218;2023-01-28T08:38:36;-23184.34;;;0.51;100.00
29385;BME280;16367;48.736;9.218;2023-01-28T08:40:39;-23180.84;;;0.40;100.00
29385;BME280;16367;48.736;9.218;2023-01-28T08:42:47;-23180.06;;;0.37;100.00
29385;BME280;16367;48.736;9.218;2023-01-28T08:44:50;-23185.97;;;0.56;100.00
29385;BME280;16367;48.736;9.218;2023-01-28T08:46:53;-23186.75;;;0.58;100.00
29385;BME280;16367;48.736;9.218;2023-01-28T08:48:56;-23182.28;;;0.44;100.00
29385;BME280;16367;48.736;9.218;2023-01-28T08:50:58;-23181.81;;;0.43;100.00
29385;BME280;16367;48.736;9.218;2023-01-28T08:53:04;-23187.06;;;0.59;100.00
29385;BME280;16367;48.736;9.218;2023-01-28T08:55:07;-23180.38;;;0.38;100.00
29385;BME280;16367;48.736;9.218;2023-01-28T08:57:10;-23184.53;;;0.51;100.00
29385;BME280;16367;48.736;9.218;2023-01-28T08:59:14;-23185.16;;;0.53;100.00
29385;BME280;16367;48.736;9.218;2023-01-28T09:01:17;-23189.94;;;0.68;100.00
29385;BME280;16367;48.736;9.218;2023-01-28T09:03:20;-23190.75;;;0.71;100.00
29385;BME280;16367;48.736;9.218;2023-01-28T09:05:22;-23191.38;;;0.73;100.00
29385;BME280;16367;48.736;9.218;2023-01-28T09:07:25;-23191.88;;;0.74;100.00
29385;BME280;16367;48.736;9.218;2023-01-28T09:09:29;-23197.28;;;0.92;100.00
29385;BME280;16367;48.736;9.218;2023-01-28T09:11:31;-23188.66;;;0.64;100.00
29385;BME280;16367;48.736;9.218;2023-01-28T09:13:34;-23190.09;;;0.69;100.00
29385;BME280;16367;48.736;9.218;2023-01-28T09:15:38;-23196.81;;;0.90;100.00
29385;BME280;16367;48.736;9.218;2023-01-28T09:17:41;-23195.22;;;0.85;100.00
29385;BME280;16367;48.736;9.218;2023-01-28T09:19:44;-23200.50;;;1.02;100.00
29385;BME280;16367;48.736;9.218;2023-01-28T09:21:47;-23197.63;;;0.93;100.00
29385;BME280;16367;48.736;9.218;2023-01-28T09:23:49;-23197.63;;;0.93;100.00
29385;BME280;16367;48.736;9.218;2023-01-28T09:25:59;-23199.22;;;0.98;100.00
29385;BME280;16367;48.736;9.218;2023-01-28T09:28:02;-23199.84;;;1.00;100.00
29385;BME280;16367;48.736;9.218;2023-01-28T09:30:06;-23202.72;;;1.09;100.00
29385;BME280;16367;48.736;9.218;2023-01-28T09:32:10;-23206.88;;;1.22;100.00
29385;BME280;16367;48.736;9.218;2023-01-28T09:34:13;-23196.03;;;0.88;100.00
29385;BME280;16367;48.736;9.218;2023-01-28T09:36:15;-23212.47;;;1.39;100.00
29385;BME280;16367;48.736;9.218;2023-01-28T09:38:18;-23203.03;;;1.10;100.00
29385;BME280;16367;48.736;9.218;2023-01-28T09:40:28;-23213.25;;;1.42;100.00
29385;BME280;16367;48.736;9.218;2023-01-28T09:42:47;-23206.88;;;1.22;100.00
29385;BME280;16367;48.736;9.218;2023-01-28T09:45:00;-23202.09;;;1.07;100.00
29385;BME280;16367;48.736;9.218;2023-01-28T09:47:11;-23208.16;;;1.26;100.00
29385;BME280;16367;48.736;9.218;2023-01-28T09:49:31;-23206.41;;;1.20;100.00
29385;BME280;16367;48.736;9.218;2023-01-28T09:51:40;-23209.13;;;1.29;100.00
29385;BME280;16367;48.736;9.218;2023-01-28T09:53:46;-23201.94;;;1.06;100.00
29385;BME280;16367;48.736;9.218;2023-01-28T09:55:54;-23207.19;;;1.23;100.00
29385;BME280;16367;48.736;9.218;2023-01-28T09:57:57;-23200.66;;;1.02;100.00
29385;BME280;16367;48.736;9.218;2023-01-28T10:00:00;-23204.81;;;1.15;100.00
29385;BME280;16367;48.736;9.218;2023-01-28T10:02:22;-23211.66;;;1.37;100.00
29385;BME280;16367;48.736;9.218;2023-01-28T10:04:42;-23212.63;;;1.40;100.00
29385;BME280;16367;48.736;9.218;2023-01-28T10:06:56;-23209.59;;;1.30;100.00
29385;BME280;16367;48.736;9.218;2023-01-28T10:09:18;-23206.06;;;1.19;100.00
29385;BME280;16367;48.736;9.218;2023-01-28T10:11:39;-23206.25;;;1.20;100.00
29385;BME280;16367;48.736;9.218;2023-01-28T10:13:50;-23198.88;;;0.97;100.00
29385;BME280;16367;48.736;9.218;2023-01-28T10:16:00;-23205.28;;;1.17;100.00
29385;BME280;16367;48.736;9.218;2023-01-28T10:18:09;-23201.44;;;1.05;100.00
29385;BME280;16367;48.736;9.218;2023-01-28T10:20:22;-23201.44;;;1.05;100.00
29385;BME280;16367;48.736;9.218;2023-01-28T10:22:31;-23204.31;;;1.14;100.00
29385;BME280;16367;48.736;9.218;2023-01-28T10:24:40;-23198.25;;;0.95;100.00
29385;BME280;16367;48.736;9.218;2023-01-28T10:26:46;-23197.78;;;0.93;100.00
29385;BME280;16367;48.736;9.218;2023-01-28T10:28:53;-23196.34;;;0.89;100.00
29385;BME280;16367;48.736;9.218;2023-01-28T10:30:57;-23194.59;;;0.83;100.00
29385;BME280;16367;48.736;9.218;2023-01-28T10:33:03;-23197.94;;;0.94;100.00
29385;BME280;16367;48.736;9.218;2023-01-28T10:35:08;-23199.53;;;0.99;100.00
29385;BME280;16367;48.736;9.218;2023-01-28T10:37:12;-23199.22;;;0.98;100.00
29385;BME280;16367;48.736;9.218;2023-01-28T10:39:17;-23199.53;;;0.99;100.00
29385;BME280;16367;48.736;9.218;2023-01-28T10:41:22;-23203.03;;;1.10;100.00
29385;BME280;16367;48.736;9.218;2023-01-28T10:43:29;-23199.22;;;0.98;100.00
29385;BME280;16367;48.736;9.218;2023-01-28T10:45:36;-23196.97;;;0.91;100.00
29385;BME280;16367;48.736;9.218;2023-01-28T10:47:43;-23200.81;;;1.03;100.00
29385;BME280;16367;48.736;9.218;2023-01-28T10:49:52;-23202.41;;;1.08;100.00
29385;BME280;16367;48.736;9.218;2023-01-28T10:52:09;-23198.56;;;0.96;100.00